sensor_id;sensor_type;location;lat;lon;timestamp;P1;durP1;ratioP1;P2;durP2;ratioP2
82948;SDS011;72736;50.236;18.876;2023-11-19T00:03:18;38.20;;;14.70;;
82948;SDS011;72736;50.236;18.876;2023-11-19T00:08:24;30.80;;;12.20;;
82948;SDS011;72736;50.236;18.876;2023-11-19T00:13:30;26.40;;;10.30;;
82948;SDS011;72736;50.236;18.876;2023-11-19T00:18:36;23.40;;;9.00;;
82948;SDS011;72736;50.236;18.876;2023-11-19T00:23:42;18.00;;;7.80;;
82948;SDS011;72736;50.236;18.876;2023-11-19T00:28:48;17.30;;;7.30;;
82948;SDS011;72736;50.236;18.876;2023-11-19T00:33:55;18.90;;;7.90;;
82948;SDS011;72736;50.236;18.876;2023-11-19T00:39:01;16.90;;;7.00;;
82948;SDS011;72736;50.236;18.876;2023-11-19T00:49:12;19.70;;;9.10;;
82948;SDS011;72736;50.236;18.876;2023-11-19T00:54:18;34.30;;;10.80;;
82948;SDS011;72736;50.236;18.876;2023-11-19T00:59:28;27.40;;;10.90;;
82948;SDS011;72736;50.236;18.876;2023-11-19T01:04:35;21.00;;;8.90;;
82948;SDS011;72736;50.236;18.876;2023-11-19T01:09:42;25.40;;;9.20;;
82948;SDS011;72736;50.236;18.876;2023-11-19T01:14:48;24.30;;;9.80;;
82948;SDS011;72736;50.236;18.876;2023-11-19T01:19:54;25.50;;;9.50;;
82948;SDS011;72736;50.236;18.876;2023-11-19T01:25:00;29.40;;;11.20;;
82948;SDS011;72736;50.236;18.876;2023-11-19T01:30:06;30.20;;;12.20;;
82948;SDS011;72736;50.236;18.876;2023-11-19T01:35:16;38.80;;;17.30;;
82948;SDS011;72736;50.236;18.876;2023-11-19T01:40:25;37.90;;;15.40;;
82948;SDS011;72736;50.236;18.876;2023-11-19T01:45:31;31.20;;;12.30;;
82948;SDS011;72736;50.236;18.876;2023-11-19T01:50:40;30.60;;;11.30;;
82948;SDS011;72736;50.236;18.876;2023-11-19T01:55:46;28.80;;;10.80;;
82948;SDS011;72736;50.236;18.876;2023-11-19T02:00:52;25.70;;;10.20;;
82948;SDS011;72736;50.236;18.876;2023-11-19T02:05:58;30.00;;;12.60;;
82948;SDS011;72736;50.236;18.876;2023-11-19T02:11:05;36.80;;;14.60;;
82948;SDS011;72736;50.236;18.876;2023-11-19T02:16:11;33.30;;;13.20;;
82948;SDS011;72736;50.236;18.876;2023-11-19T02:21:17;31.40;;;11.00;;
82948;SDS011;72736;50.236;18.876;2023-11-19T02:26:25;27.10;;;9.70;;
82948;SDS011;72736;50.236;18.876;2023-11-19T02:31:39;33.70;;;12.10;;
82948;SDS011;72736;50.236;18.876;2023-11-19T02:36:46;29.90;;;11.40;;
82948;SDS011;72736;50.236;18.876;2023-11-19T02:41:53;36.00;;;13.50;;
82948;SDS011;72736;50.236;18.876;2023-11-19T02:46:58;31.80;;;12.10;;
82948;SDS011;72736;50.236;18.876;2023-11-19T02:52:07;31.10;;;12.10;;
82948;SDS011;72736;50.236;18.876;2023-11-19T02:57:13;31.90;;;11.40;;
82948;SDS011;72736;50.236;18.876;2023-11-19T03:02:24;33.30;;;13.50;;
82948;SDS011;72736;50.236;18.876;2023-11-19T03:07:37;35.00;;;11.30;;
82948;SDS011;72736;50.236;18.876;2023-11-19T03:12:43;31.60;;;12.50;;
82948;SDS011;72736;50.236;18.876;2023-11-19T03:17:49;32.10;;;12.10;;
82948;SDS011;72736;50.236;18.876;2023-11-19T03:22:57;31.20;;;13.60;;
82948;SDS011;72736;50.236;18.876;2023-11-19T03:28:03;73.80;;;24.80;;
82948;SDS011;72736;50.236;18.876;2023-11-19T03:33:10;64.20;;;24.40;;
82948;SDS011;72736;50.236;18.876;2023-11-19T03:38:15;50.90;;;18.90;;
82948;SDS011;72736;50.236;18.876;2023-11-19T03:43:21;34.40;;;13.50;;
82948;SDS011;72736;50.236;18.876;2023-11-19T03:48:27;33.70;;;13.30;;
82948;SDS011;72736;50.236;18.876;2023-11-19T03:53:34;35.80;;;13.50;;
82948;SDS011;72736;50.236;18.876;2023-11-19T03:58:39;35.10;;;13.40;;
82948;SDS011;72736;50.236;18.876;2023-11-19T04:03:46;30.80;;;12.50;;
82948;SDS011;72736;50.236;18.876;2023-11-19T04:08:53;35.60;;;13.00;;
82948;SDS011;72736;50.236;18.876;2023-11-19T04:13:59;33.70;;;13.70;;
82948;SDS011;72736;50.236;18.876;2023-11-19T04:19:05;38.60;;;14.40;;
82948;SDS011;72736;50.236;18.876;2023-11-19T04:24:11;35.50;;;14.00;;
82948;SDS011;72736;50.236;18.876;2023-11-19T04:29:17;34.70;;;13.00;;
82948;SDS011;72736;50.236;18.876;2023-11-19T04:34:24;30.60;;;12.30;;
82948;SDS011;72736;50.236;18.876;2023-11-19T04:39:30;37.10;;;14.20;;
82948;SDS011;72736;50.236;18.876;2023-11-19T04:44:35;35.10;;;13.00;;
82948;SDS011;72736;50.236;18.876;2023-11-19T04:49:41;36.20;;;14.30;;
82948;SDS011;72736;50.236;18.876;2023-11-19T04:54:47;36.80;;;15.20;;
82948;SDS011;72736;50.236;18.876;2023-11-19T04:59:53;39.90;;;15.70;;
82948;SDS011;72736;50.236;18.876;2023-11-19T05:04:59;67.00;;;20.90;;
82948;SDS011;72736;50.236;18.876;2023-11-19T05:10:07;36.20;;;14.50;;
82948;SDS011;72736;50.236;18.876;2023-11-19T05:15:13;41.50;;;15.50;;
82948;SDS011;72736;50.236;18.876;2023-11-19T05:20:19;35.30;;;13.80;;
82948;SDS011;72736;50.236;18.876;2023-11-19T05:25:25;37.90;;;13.80;;
82948;SDS011;72736;50.236;18.876;2023-11-19T05:30:31;29.90;;;12.70;;
82948;SDS011;72736;50.236;18.876;2023-11-19T05:35:37;30.90;;;13.20;;
82948;SDS011;72736;50.236;18.876;2023-11-19T05:40:43;34.60;;;13.70;;
82948;SDS011;72736;50.236;18.876;2023-11-19T05:45:51;31.80;;;12.50;;
82948;SDS011;72736;50.236;18.876;2023-11-19T05:50:57;29.30;;;11.40;;
82948;SDS011;72736;50.236;18.876;2023-11-19T05:56:03;39.60;;;14.70;;
82948;SDS011;72736;50.236;18.876;2023-11-19T06:01:12;26.80;;;12.70;;
82948;SDS011;72736;50.236;18.876;2023-11-19T06:06:18;33.50;;;12.60;;
82948;SDS011;72736;50.236;18.876;2023-11-19T06:11:24;31.60;;;13.60;;
82948;SDS011;72736;50.236;18.876;2023-11-19T06:16:30;34.40;;;13.90;;
82948;SDS011;72736;50.236;18.876;2023-11-19T06:21:36;31.80;;;13.10;;
82948;SDS011;72736;50.236;18.876;2023-11-19T06:26:41;35.30;;;12.70;;
82948;SDS011;72736;50.236;18.876;2023-11-19T06:31:48;37.50;;;15.20;;
82948;SDS011;72736;50.236;18.876;2023-11-19T06:36:54;36.10;;;13.80;;
82948;SDS011;72736;50.236;18.876;2023-11-19T06:42:00;50.30;;;19.30;;
82948;SDS011;72736;50.236;18.876;2023-11-19T06:47:06;46.30;;;19.20;;
82948;SDS011;72736;50.236;18.876;2023-11-19T06:52:12;38.70;;;14.50;;
82948;SDS011;72736;50.236;18.876;2023-11-19T06:57:18;38.60;;;15.80;;
82948;SDS011;72736;50.236;18.876;2023-11-19T07:02:26;37.00;;;13.80;;
82948;SDS011;72736;50.236;18.876;2023-11-19T07:07:34;39.20;;;15.50;;
82948;SDS011;72736;50.236;18.876;2023-11-19T07:12:40;38.10;;;15.50;;
82948;SDS011;72736;50.236;18.876;2023-11-19T07:17:47;37.20;;;14.70;;
82948;SDS011;72736;50.236;18.876;2023-11-19T07:23:05;39.10;;;14.90;;
82948;SDS011;72736;50.236;18.876;2023-11-19T07:28:11;38.20;;;16.60;;
82948;SDS011;72736;50.236;18.876;2023-11-19T07:33:17;39.40;;;16.30;;
82948;SDS011;72736;50.236;18.876;2023-11-19T07:38:23;37.80;;;16.50;;
82948;SDS011;72736;50.236;18.876;2023-11-19T07:43:29;43.30;;;18.00;;
82948;SDS011;72736;50.236;18.876;2023-11-19T07:48:35;37.60;;;17.50;;
82948;SDS011;72736;50.236;18.876;2023-11-19T07:53:41;38.30;;;14.80;;
82948;SDS011;72736;50.236;18.876;2023-11-19T07:58:47;40.20;;;17.20;;
82948;SDS011;72736;50.236;18.876;2023-11-19T08:03:53;38.90;;;16.00;;
82948;SDS011;72736;50.236;18.876;2023-11-19T08:09:02;39.60;;;17.30;;
82948;SDS011;72736;50.236;18.876;2023-11-19T08:14:09;43.70;;;17.90;;
82948;SDS011;72736;50.236;18.876;2023-11-19T08:19:16;38.60;;;15.90;;
82948;SDS011;72736;50.236;18.876;2023-11-19T08:24:21;33.10;;;15.00;;
82948;SDS011;72736;50.236;18.876;2023-11-19T08:29:27;34.40;;;14.70;;
82948;SDS011;72736;50.236;18.876;2023-11-19T08:34:33;36.90;;;15.30;;
82948;SDS011;72736;50.236;18.876;2023-11-19T08:39:39;32.10;;;12.80;;
82948;SDS011;72736;50.236;18.876;2023-11-19T08:44:45;29.90;;;12.60;;
82948;SDS011;72736;50.236;18.876;2023-11-19T08:49:57;29.40;;;13.90;;
82948;SDS011;72736;50.236;18.876;2023-11-19T08:55:07;37.20;;;14.60;;
82948;SDS011;72736;50.236;18.876;2023-11-19T09:00:14;35.60;;;14.50;;
82948;SDS011;72736;50.236;18.876;2023-11-19T09:05:21;32.20;;;14.70;;
82948;SDS011;72736;50.236;18.876;2023-11-19T09:10:26;42.60;;;16.60;;
82948;SDS011;72736;50.236;18.876;2023-11-19T09:15:33;39.60;;;17.50;;
82948;SDS011;72736;50.236;18.876;2023-11-19T09:20:39;43.70;;;18.80;;
82948;SDS011;72736;50.236;18.876;2023-11-19T09:25:44;40.20;;;18.00;;
82948;SDS011;72736;50.236;18.876;2023-11-19T09:30:50;44.80;;;18.30;;
82948;SDS011;72736;50.236;18.876;2023-11-19T09:35:56;37.70;;;16.90;;
82948;SDS011;72736;50.236;18.876;2023-11-19T09:41:02;43.50;;;18.80;;
82948;SDS011;72736;50.236;18.876;2023-11-19T09:46:12;41.40;;;17.90;;
82948;SDS011;72736;50.236;18.876;2023-11-19T09:51:19;37.70;;;16.70;;
82948;SDS011;72736;50.236;18.876;2023-11-19T09:56:25;41.70;;;17.40;;
82948;SDS011;72736;50.236;18.876;2023-11-19T10:01:33;41.10;;;17.10;;
82948;SDS011;72736;50.236;18.876;2023-11-19T10:06:39;36.80;;;15.00;;
82948;SDS011;72736;50.236;18.876;2023-11-19T10:11:45;34.20;;;15.70;;
82948;SDS011;72736;50.236;18.876;2023-11-19T10:16:53;31.80;;;13.90;;
82948;SDS011;72736;50.236;18.876;2023-11-19T10:22:04;36.00;;;16.40;;
82948;SDS011;72736;50.236;18.876;2023-11-19T10:27:10;35.30;;;16.50;;
82948;SDS011;72736;50.236;18.876;2023-11-19T10:32:17;30.90;;;13.80;;
82948;SDS011;72736;50.236;18.876;2023-11-19T10:37:29;29.30;;;11.50;;
82948;SDS011;72736;50.236;18.876;2023-11-19T10:42:38;26.10;;;10.70;;
82948;SDS011;72736;50.236;18.876;2023-11-19T10:47:45;25.50;;;9.20;;
82948;SDS011;72736;50.236;18.876;2023-11-19T10:52:52;23.10;;;10.20;;
82948;SDS011;72736;50.236;18.876;2023-11-19T10:58:02;25.70;;;11.10;;
82948;SDS011;72736;50.236;18.876;2023-11-19T11:03:10;24.80;;;9.90;;
82948;SDS011;72736;50.236;18.876;2023-11-19T11:08:20;25.50;;;10.90;;
82948;SDS011;72736;50.236;18.876;2023-11-19T11:13:26;24.80;;;10.70;;
82948;SDS011;72736;50.236;18.876;2023-11-19T11:18:33;24.00;;;11.30;;
82948;SDS011;72736;50.236;18.876;2023-11-19T11:29:24;26.10;;;11.20;;
82948;SDS011;72736;50.236;18.876;2023-11-19T11:34:42;29.90;;;12.60;;
82948;SDS011;72736;50.236;18.876;2023-11-19T11:39:58;32.00;;;12.90;;
82948;SDS011;72736;50.236;18.876;2023-11-19T11:45:08;30.90;;;13.50;;
82948;SDS011;72736;50.236;18.876;2023-11-19T11:50:17;32.90;;;14.10;;
82948;SDS011;72736;50.236;18.876;2023-11-19T11:55:25;40.10;;;15.20;;
82948;SDS011;72736;50.236;18.876;2023-11-19T12:00:32;30.70;;;13.70;;
82948;SDS011;72736;50.236;18.876;2023-11-19T12:05:42;32.50;;;14.00;;
82948;SDS011;72736;50.236;18.876;2023-11-19T12:10:50;38.50;;;16.10;;
82948;SDS011;72736;50.236;18.876;2023-11-19T12:16:10;34.70;;;13.80;;
82948;SDS011;72736;50.236;18.876;2023-11-19T12:21:28;32.20;;;14.40;;
82948;SDS011;72736;50.236;18.876;2023-11-19T12:31:54;30.40;;;11.40;;
82948;SDS011;72736;50.236;18.876;2023-11-19T12:37:06;22.50;;;10.70;;
82948;SDS011;72736;50.236;18.876;2023-11-19T12:42:12;24.90;;;10.30;;
82948;SDS011;72736;50.236;18.876;2023-11-19T12:47:18;25.00;;;10.00;;
82948;SDS011;72736;50.236;18.876;2023-11-19T12:52:24;20.40;;;9.00;;
82948;SDS011;72736;50.236;18.876;2023-11-19T12:57:37;18.80;;;7.70;;
82948;SDS011;72736;50.236;18.876;2023-11-19T13:02:46;15.20;;;7.10;;
82948;SDS011;72736;50.236;18.876;2023-11-19T13:07:52;15.50;;;6.60;;
82948;SDS011;72736;50.236;18.876;2023-11-19T13:13:04;15.20;;;6.80;;
82948;SDS011;72736;50.236;18.876;2023-11-19T13:18:12;14.90;;;6.80;;
82948;SDS011;72736;50.236;18.876;2023-11-19T13:23:20;21.80;;;7.20;;
82948;SDS011;72736;50.236;18.876;2023-11-19T13:28:26;16.60;;;7.20;;
82948;SDS011;72736;50.236;18.876;2023-11-19T13:33:32;15.90;;;6.90;;
82948;SDS011;72736;50.236;18.876;2023-11-19T13:38:39;18.70;;;8.20;;
82948;SDS011;72736;50.236;18.876;2023-11-19T13:43:47;18.70;;;9.00;;
82948;SDS011;72736;50.236;18.876;2023-11-19T13:48:53;17.30;;;7.80;;
82948;SDS011;72736;50.236;18.876;2023-11-19T13:53:59;15.20;;;7.80;;
82948;SDS011;72736;50.236;18.876;2023-11-19T13:59:05;16.20;;;7.90;;
82948;SDS011;72736;50.236;18.876;2023-11-19T14:04:13;19.10;;;8.30;;
82948;SDS011;72736;50.236;18.876;2023-11-19T14:09:19;22.70;;;8.20;;
82948;SDS011;72736;50.236;18.876;2023-11-19T14:14:25;19.80;;;8.00;;
82948;SDS011;72736;50.236;18.876;2023-11-19T14:19:32;18.60;;;7.80;;
82948;SDS011;72736;50.236;18.876;2023-11-19T14:24:38;15.70;;;7.30;;
82948;SDS011;72736;50.236;18.876;2023-11-19T14:29:45;19.20;;;8.40;;
82948;SDS011;72736;50.236;18.876;2023-11-19T14:34:51;15.90;;;7.00;;
82948;SDS011;72736;50.236;18.876;2023-11-19T14:39:58;15.30;;;6.50;;
82948;SDS011;72736;50.236;18.876;2023-11-19T14:45:07;14.60;;;7.20;;
82948;SDS011;72736;50.236;18.876;2023-11-19T14:50:16;15.80;;;7.10;;
82948;SDS011;72736;50.236;18.876;2023-11-19T14:55:23;13.90;;;6.20;;
82948;SDS011;72736;50.236;18.876;2023-11-19T15:00:29;12.30;;;5.70;;
82948;SDS011;72736;50.236;18.876;2023-11-19T15:05:35;11.00;;;5.30;;
82948;SDS011;72736;50.236;18.876;2023-11-19T15:10:42;13.60;;;6.30;;
82948;SDS011;72736;50.236;18.876;2023-11-19T15:15:50;13.70;;;6.80;;
82948;SDS011;72736;50.236;18.876;2023-11-19T15:20:58;15.60;;;7.50;;
82948;SDS011;72736;50.236;18.876;2023-11-19T15:31:14;13.20;;;6.30;;
82948;SDS011;72736;50.236;18.876;2023-11-19T15:36:19;14.10;;;6.80;;
82948;SDS011;72736;50.236;18.876;2023-11-19T15:41:25;17.40;;;6.70;;
82948;SDS011;72736;50.236;18.876;2023-11-19T15:46:33;13.50;;;7.00;;
82948;SDS011;72736;50.236;18.876;2023-11-19T15:51:39;12.20;;;6.30;;
82948;SDS011;72736;50.236;18.876;2023-11-19T16:01:50;14.30;;;5.80;;
82948;SDS011;72736;50.236;18.876;2023-11-19T16:06:56;13.80;;;6.20;;
82948;SDS011;72736;50.236;18.876;2023-11-19T16:12:02;14.20;;;7.20;;
82948;SDS011;72736;50.236;18.876;2023-11-19T16:17:09;14.70;;;7.40;;
82948;SDS011;72736;50.236;18.876;2023-11-19T16:22:15;18.90;;;8.90;;
82948;SDS011;72736;50.236;18.876;2023-11-19T16:27:22;17.20;;;8.70;;
82948;SDS011;72736;50.236;18.876;2023-11-19T16:32:31;15.10;;;8.30;;
82948;SDS011;72736;50.236;18.876;2023-11-19T16:37:40;17.80;;;8.50;;
82948;SDS011;72736;50.236;18.876;2023-11-19T16:42:46;16.60;;;8.20;;
82948;SDS011;72736;50.236;18.876;2023-11-19T16:47:53;14.70;;;8.20;;
82948;SDS011;72736;50.236;18.876;2023-11-19T16:52:59;18.70;;;8.40;;
82948;SDS011;72736;50.236;18.876;2023-11-19T16:58:07;15.90;;;8.00;;
82948;SDS011;72736;50.236;18.876;2023-11-19T17:03:14;17.40;;;8.80;;
82948;SDS011;72736;50.236;18.876;2023-11-19T17:08:20;14.60;;;8.00;;
82948;SDS011;72736;50.236;18.876;2023-11-19T17:13:26;16.00;;;7.50;;
82948;SDS011;72736;50.236;18.876;2023-11-19T17:18:32;14.10;;;7.10;;
82948;SDS011;72736;50.236;18.876;2023-11-19T17:23:40;16.40;;;7.80;;
82948;SDS011;72736;50.236;18.876;2023-11-19T17:28:46;29.30;;;12.10;;
82948;SDS011;72736;50.236;18.876;2023-11-19T17:33:52;20.20;;;8.90;;
82948;SDS011;72736;50.236;18.876;2023-11-19T17:38:58;15.50;;;7.70;;
82948;SDS011;72736;50.236;18.876;2023-11-19T17:44:06;14.30;;;6.70;;
82948;SDS011;72736;50.236;18.876;2023-11-19T17:49:12;14.50;;;6.90;;
82948;SDS011;72736;50.236;18.876;2023-11-19T17:54:18;17.50;;;7.60;;
82948;SDS011;72736;50.236;18.876;2023-11-19T17:59:24;14.60;;;7.20;;
82948;SDS011;72736;50.236;18.876;2023-11-19T18:04:30;14.80;;;8.20;;
82948;SDS011;72736;50.236;18.876;2023-11-19T18:09:40;16.90;;;7.90;;
82948;SDS011;72736;50.236;18.876;2023-11-19T18:19:55;17.40;;;8.00;;
82948;SDS011;72736;50.236;18.876;2023-11-19T18:25:01;18.30;;;8.00;;
82948;SDS011;72736;50.236;18.876;2023-11-19T18:30:08;16.20;;;8.20;;
82948;SDS011;72736;50.236;18.876;2023-11-19T18:35:16;17.40;;;8.30;;
82948;SDS011;72736;50.236;18.876;2023-11-19T18:40:27;22.20;;;9.60;;
82948;SDS011;72736;50.236;18.876;2023-11-19T18:45:33;18.40;;;8.50;;
82948;SDS011;72736;50.236;18.876;2023-11-19T18:50:39;22.70;;;9.70;;
82948;SDS011;72736;50.236;18.876;2023-11-19T18:55:48;19.90;;;9.40;;
82948;SDS011;72736;50.236;18.876;2023-11-19T19:00:54;18.40;;;9.10;;
82948;SDS011;72736;50.236;18.876;2023-11-19T19:06:00;21.00;;;10.30;;
82948;SDS011;72736;50.236;18.876;2023-11-19T19:11:06;15.40;;;8.40;;
82948;SDS011;72736;50.236;18.876;2023-11-19T19:16:12;21.30;;;9.30;;
82948;SDS011;72736;50.236;18.876;2023-11-19T19:21:18;19.40;;;9.50;;
82948;SDS011;72736;50.236;18.876;2023-11-19T19:26:24;18.70;;;9.60;;
82948;SDS011;72736;50.236;18.876;2023-11-19T19:31:30;19.30;;;10.20;;
82948;SDS011;72736;50.236;18.876;2023-11-19T19:36:36;23.20;;;10.00;;
82948;SDS011;72736;50.236;18.876;2023-11-19T19:41:41;19.20;;;9.50;;
82948;SDS011;72736;50.236;18.876;2023-11-19T19:46:47;25.20;;;11.00;;
82948;SDS011;72736;50.236;18.876;2023-11-19T19:51:53;21.20;;;9.40;;
82948;SDS011;72736;50.236;18.876;2023-11-19T19:56:59;20.50;;;10.00;;
82948;SDS011;72736;50.236;18.876;2023-11-19T20:02:05;17.80;;;9.00;;
82948;SDS011;72736;50.236;18.876;2023-11-19T20:07:11;21.10;;;9.50;;
82948;SDS011;72736;50.236;18.876;2023-11-19T20:12:17;18.20;;;9.50;;
82948;SDS011;72736;50.236;18.876;2023-11-19T20:17:23;23.90;;;10.70;;
82948;SDS011;72736;50.236;18.876;2023-11-19T20:22:29;20.40;;;10.10;;
82948;SDS011;72736;50.236;18.876;2023-11-19T20:27:37;20.20;;;9.70;;
82948;SDS011;72736;50.236;18.876;2023-11-19T20:32:43;21.00;;;10.60;;
82948;SDS011;72736;50.236;18.876;2023-11-19T20:37:50;18.80;;;9.20;;
82948;SDS011;72736;50.236;18.876;2023-11-19T20:42:56;19.60;;;9.50;;
82948;SDS011;72736;50.236;18.876;2023-11-19T20:48:02;21.60;;;10.40;;
82948;SDS011;72736;50.236;18.876;2023-11-19T20:53:08;26.00;;;11.40;;
82948;SDS011;72736;50.236;18.876;2023-11-19T20:58:14;25.30;;;10.30;;
82948;SDS011;72736;50.236;18.876;2023-11-19T21:03:20;20.10;;;10.50;;
82948;SDS011;72736;50.236;18.876;2023-11-19T21:08:26;25.50;;;10.60;;
82948;SDS011;72736;50.236;18.876;2023-11-19T21:13:32;26.70;;;11.30;;
82948;SDS011;72736;50.236;18.876;2023-11-19T21:18:38;23.60;;;10.40;;
82948;SDS011;72736;50.236;18.876;2023-11-19T21:23:44;25.60;;;11.70;;
82948;SDS011;72736;50.236;18.876;2023-11-19T21:28:50;21.70;;;10.60;;
82948;SDS011;72736;50.236;18.876;2023-11-19T21:33:57;24.90;;;12.20;;
82948;SDS011;72736;50.236;18.876;2023-11-19T21:39:03;23.20;;;11.30;;
82948;SDS011;72736;50.236;18.876;2023-11-19T21:44:11;26.60;;;12.40;;
82948;SDS011;72736;50.236;18.876;2023-11-19T21:49:17;22.00;;;10.70;;
82948;SDS011;72736;50.236;18.876;2023-11-19T21:54:23;25.10;;;11.50;;
82948;SDS011;72736;50.236;18.876;2023-11-19T21:59:30;23.40;;;10.90;;
82948;SDS011;72736;50.236;18.876;2023-11-19T22:04:37;22.70;;;9.90;;
82948;SDS011;72736;50.236;18.876;2023-11-19T22:09:42;22.10;;;10.60;;
82948;SDS011;72736;50.236;18.876;2023-11-19T22:14:48;23.50;;;9.90;;
82948;SDS011;72736;50.236;18.876;2023-11-19T22:19:54;23.60;;;11.20;;
82948;SDS011;72736;50.236;18.876;2023-11-19T22:25:00;22.90;;;10.60;;
82948;SDS011;72736;50.236;18.876;2023-11-19T22:30:07;23.90;;;10.60;;
82948;SDS011;72736;50.236;18.876;2023-11-19T22:35:14;24.30;;;11.50;;
82948;SDS011;72736;50.236;18.876;2023-11-19T22:40:20;23.90;;;11.50;;
82948;SDS011;72736;50.236;18.876;2023-11-19T22:45:26;20.60;;;10.90;;
82948;SDS011;72736;50.236;18.876;2023-11-19T22:50:32;26.80;;;12.60;;
82948;SDS011;72736;50.236;18.876;2023-11-19T22:55:38;24.80;;;11.60;;
82948;SDS011;72736;50.236;18.876;2023-11-19T23:00:43;23.40;;;11.60;;
82948;SDS011;72736;50.236;18.876;2023-11-19T23:05:50;24.80;;;11.50;;
82948;SDS011;72736;50.236;18.876;2023-11-19T23:10:55;30.40;;;12.00;;
82948;SDS011;72736;50.236;18.876;2023-11-19T23:16:02;21.70;;;10.70;;
82948;SDS011;72736;50.236;18.876;2023-11-19T23:21:09;20.80;;;9.60;;
82948;SDS011;72736;50.236;18.876;2023-11-19T23:26:17;22.00;;;10.90;;
82948;SDS011;72736;50.236;18.876;2023-11-19T23:31:22;21.80;;;9.60;;
82948;SDS011;72736;50.236;18.876;2023-11-19T23:36:28;20.60;;;9.00;;
82948;SDS011;72736;50.236;18.876;2023-11-19T23:41:34;21.90;;;10.40;;
82948;SDS011;72736;50.236;18.876;2023-11-19T23:46:40;23.00;;;9.90;;
82948;SDS011;72736;50.236;18.876;2023-11-19T23:51:46;27.20;;;9.90;;
82948;SDS011;72736;50.236;18.876;2023-11-19T23:56:52;23.30;;;11.30;;
